Time;durP1;ratioP1;P1;durP2;ratioP2;P2;SDS_P1;SDS_P2;PMS_P1;PMS_P2;Temp;Humidity;BMP_temperature;BMP_pressure;BME280_temperature;BME280_humidity;BME280_pressure;Samples;Min_cycle;Max_cycle;Signal;HPM_P1;HPM_P2
2022/11/30 00:01:54;;;;;;;;;;;6.30;91.60;;;;;;4983374;28;19906;-85
2022/11/30 00:04:19;;;;;;;;;;;6.30;91.20;;;;;;4983841;28;19913;-85
2022/11/30 00:06:45;;;;;;;;;;;6.30;91.00;;;;;;4983944;28;19914;-86
2022/11/30 00:09:12;;;;;;;;;;;6.30;91.00;;;;;;4983787;28;20401;-85
2022/11/30 00:11:37;;;;;;;;;;;6.40;90.50;;;;;;4983982;28;20282;-86
2022/11/30 00:14:03;;;;;;;;;;;6.40;90.30;;;;;;4984275;28;19932;-85
2022/11/30 00:16:28;;;;;;;;;;;6.40;90.30;;;;;;4983536;28;20350;-85
2022/11/30 00:18:54;;;;;;;;;;;6.40;90.20;;;;;;4983998;28;19973;-86
2022/11/30 00:21:19;;;;;;;;;;;6.40;90.00;;;;;;4983981;28;19913;-86
2022/11/30 00:23:45;;;;;;;;;;;6.50;89.90;;;;;;5001632;28;19921;-88
2022/11/30 00:26:13;;;;;;;;;;;6.40;89.30;;;;;;4984361;28;20001;-87
2022/11/30 00:28:39;;;;;;;;;;;6.40;89.20;;;;;;4984303;28;19905;-87
2022/11/30 00:31:06;;;;;;;;;;;6.40;89.10;;;;;;4983868;28;19918;-85
2022/11/30 00:33:32;;;;;;;;;;;6.40;89.20;;;;;;4983938;28;20413;-85
2022/11/30 00:35:59;;;;;;;;;;;6.40;89.10;;;;;;5001415;28;20384;-86
2022/11/30 00:38:24;;;;;;;;;;;6.40;89.20;;;;;;5000186;28;19900;-86
2022/11/30 00:40:50;;;;;;;;;;;6.40;89.20;;;;;;5006531;28;19937;-85
2022/11/30 00:43:16;;;;;;;;;;;6.40;89.20;;;;;;5020387;28;19913;-83
2022/11/30 00:45:41;;;;;;;;;;;6.50;89.10;;;;;;5005467;28;20393;-83
2022/11/30 00:48:07;;;;;;;;;;;6.50;88.80;;;;;;5001029;28;19964;-84
2022/11/30 00:50:32;;;;;;;;;;;6.50;88.80;;;;;;5000787;28;20025;-84
2022/11/30 00:52:58;;;;;;;;;;;6.50;88.80;;;;;;4982962;28;20373;-84
2022/11/30 00:55:23;;;;;;;;;;;6.50;88.70;;;;;;4983078;28;19906;-85
2022/11/30 00:57:49;;;;;;;;;;;6.50;88.70;;;;;;4983578;28;19952;-87
2022/11/30 01:00:14;;;;;;;;;;;6.40;88.70;;;;;;4983511;28;19906;-86
2022/11/30 01:02:40;;;;;;;;;;;6.40;88.60;;;;;;4983764;28;19928;-86
2022/11/30 01:05:05;;;;;;;;;;;6.40;88.70;;;;;;5001102;28;20409;-86
2022/11/30 01:07:31;;;;;;;;;;;6.40;88.90;;;;;;4984408;28;19933;-86
2022/11/30 01:09:57;;;;;;;;;;;6.30;89.10;;;;;;4983886;28;19956;-86
2022/11/30 01:12:22;;;;;;;;;;;6.30;89.40;;;;;;4981635;28;20274;-86
2022/11/30 01:14:48;;;;;;;;;;;6.30;89.20;;;;;;4980403;28;19906;-85
2022/11/30 01:17:13;;;;;;;;;;;6.30;89.20;;;;;;4997842;28;20277;-86
2022/11/30 01:19:38;;;;;;;;;;;6.30;89.20;;;;;;4980405;28;19966;-86
2022/11/30 01:22:04;;;;;;;;;;;6.30;89.10;;;;;;4981083;28;19912;-86
2022/11/30 01:24:29;;;;;;;;;;;6.30;89.10;;;;;;4998600;28;20578;-86
2022/11/30 01:26:55;;;;;;;;;;;6.40;89.10;;;;;;4980517;28;19906;-86
2022/11/30 01:29:20;;;;;;;;;;;6.30;89.70;;;;;;4980659;28;20286;-86
2022/11/30 01:31:46;;;;;;;;;;;6.30;89.00;;;;;;4980553;28;19916;-86
2022/11/30 01:34:11;;;;;;;;;;;6.20;88.90;;;;;;4980254;28;19957;-85
2022/11/30 01:36:37;;;;;;;;;;;6.20;89.20;;;;;;4980258;28;20372;-86
2022/11/30 01:39:05;;;;;;;;;;;6.30;89.40;;;;;;4981531;28;19913;-85
2022/11/30 01:41:31;;;;;;;;;;;6.20;89.30;;;;;;4979715;28;19913;-85
2022/11/30 01:44:16;;;;;;;;;;;6.20;89.50;;;;;;4979712;28;19913;-84
2022/11/30 01:46:49;;;;;;;;;;;6.20;89.50;;;;;;4980259;28;19917;-85
2022/11/30 01:49:17;;;;;;;;;;;6.20;89.40;;;;;;4990029;28;19913;-85
2022/11/30 01:51:47;;;;;;;;;;;6.30;89.50;;;;;;4982165;28;19921;-86
2022/11/30 01:54:14;;;;;;;;;;;6.30;89.60;;;;;;4979902;28;19976;-85
2022/11/30 01:56:44;;;;;;;;;;;6.30;89.50;;;;;;4980255;28;19997;-85
2022/11/30 01:59:10;;;;;;;;;;;6.30;89.20;;;;;;4980365;28;19913;-85
2022/11/30 02:01:35;;;;;;;;;;;6.30;89.10;;;;;;4979791;28;19956;-85
2022/11/30 02:04:03;;;;;;;;;;;6.20;89.10;;;;;;4980892;28;19909;-85
2022/11/30 02:06:28;;;;;;;;;;;6.20;89.40;;;;;;4980405;28;19941;-84
2022/11/30 02:08:54;;;;;;;;;;;6.20;89.30;;;;;;4979961;28;19936;-85
2022/11/30 02:11:20;;;;;;;;;;;6.20;89.40;;;;;;4981064;28;20012;-85
2022/11/30 02:13:45;;;;;;;;;;;6.20;89.40;;;;;;5000093;28;19956;-85
2022/11/30 02:16:26;;;;;;;;;;;6.20;89.40;;;;;;4983624;28;19937;-84
2022/11/30 02:19:04;;;;;;;;;;;6.20;89.50;;;;;;4989715;28;19910;-84
2022/11/30 02:21:40;;;;;;;;;;;6.20;89.60;;;;;;5000243;28;20375;-84
2022/11/30 02:24:14;;;;;;;;;;;6.20;89.70;;;;;;4977864;28;20374;-84
2022/11/30 02:26:59;;;;;;;;;;;6.20;89.70;;;;;;4979466;28;19905;-85
2022/11/30 02:29:28;;;;;;;;;;;6.20;89.70;;;;;;4996520;28;19913;-85
2022/11/30 02:32:07;;;;;;;;;;;6.20;89.60;;;;;;4979068;28;20005;-85
2022/11/30 02:34:34;;;;;;;;;;;6.20;89.70;;;;;;4978760;28;19906;-85
2022/11/30 02:36:59;;;;;;;;;;;6.10;89.80;;;;;;4978904;28;19906;-85
2022/11/30 02:39:25;;;;;;;;;;;6.20;89.80;;;;;;4978661;28;19929;-85
2022/11/30 02:41:50;;;;;;;;;;;6.10;89.90;;;;;;4978911;28;19909;-86
2022/11/30 02:44:16;;;;;;;;;;;6.10;89.90;;;;;;4978992;28;20362;-86
2022/11/30 02:46:56;;;;;;;;;;;6.10;90.00;;;;;;4979193;28;19910;-84
2022/11/30 02:49:41;;;;;;;;;;;6.10;90.00;;;;;;4978150;28;20380;-82
2022/11/30 02:52:07;;;;;;;;;;;6.10;90.90;;;;;;4977828;28;19910;-82
2022/11/30 02:54:33;;;;;;;;;;;6.10;90.00;;;;;;4977814;28;19936;-82
2022/11/30 02:56:58;;;;;;;;;;;6.00;89.90;;;;;;4977903;28;19913;-83
2022/11/30 02:59:24;;;;;;;;;;;6.00;90.40;;;;;;4978079;28;19906;-83
2022/11/30 03:01:49;;;;;;;;;;;5.90;90.60;;;;;;4978019;28;20445;-83
2022/11/30 03:04:15;;;;;;;;;;;5.90;90.70;;;;;;4978221;28;19912;-83
2022/11/30 03:06:40;;;;;;;;;;;5.80;90.60;;;;;;4978119;28;20460;-83
2022/11/30 03:09:06;;;;;;;;;;;5.90;90.70;;;;;;4995326;28;20004;-83
2022/11/30 03:11:32;;;;;;;;;;;5.80;90.80;;;;;;4977864;28;20370;-82
2022/11/30 03:13:57;;;;;;;;;;;5.90;91.00;;;;;;4977601;28;19959;-82
2022/11/30 03:16:23;;;;;;;;;;;6.00;90.80;;;;;;4995082;28;19909;-82
2022/11/30 03:18:48;;;;;;;;;;;5.90;90.70;;;;;;4977403;28;20017;-83
2022/11/30 03:21:14;;;;;;;;;;;5.90;90.70;;;;;;4977736;28;19906;-83
2022/11/30 03:23:39;;;;;;;;;;;5.90;90.80;;;;;;4977501;28;20278;-84
2022/11/30 03:26:06;;;;;;;;;;;5.90;90.70;;;;;;4977498;28;19910;-82
2022/11/30 03:28:32;;;;;;;;;;;5.80;90.70;;;;;;4977402;28;19916;-83
2022/11/30 03:30:57;;;;;;;;;;;5.80;91.40;;;;;;4977837;28;19914;-85
2022/11/30 03:33:23;;;;;;;;;;;5.90;90.70;;;;;;4994874;28;20261;-79
2022/11/30 03:35:57;;;;;;;;;;;5.90;90.60;;;;;;4994186;28;19917;-82
2022/11/30 03:38:22;;;;;;;;;;;5.90;90.40;;;;;;4995012;28;20353;-85
2022/11/30 03:40:48;;;;;;;;;;;5.90;90.40;;;;;;4977373;28;19993;-83
2022/11/30 03:43:13;;;;;;;;;;;5.90;90.30;;;;;;4976998;28;19910;-75
2022/11/30 03:45:39;;;;;;;;;;;6.30;94.30;;;;;;4994446;28;19912;-76
2022/11/30 03:48:04;;;;;;;;;;;6.60;95.50;;;;;;4994280;28;19920;-76
2022/11/30 03:50:30;;;;;;;;;;;6.60;94.30;;;;;;4994067;28;20273;-79
2022/11/30 03:52:55;;;;;;;;;;;6.70;93.50;;;;;;4994388;28;19967;-75
2022/11/30 03:55:21;;;;;;;;;;;6.80;92.70;;;;;;4994012;28;20385;-75
2022/11/30 03:57:46;;;;;;;;;;;7.00;91.90;;;;;;4994134;28;20004;-75
2022/11/30 04:00:12;;;;;;;;;;;7.10;90.90;;;;;;4994196;28;19906;-77
2022/11/30 04:02:37;;;;;;;;;;;7.20;89.40;;;;;;4976586;28;20396;-76
2022/11/30 04:05:03;;;;;;;;;;;7.30;89.10;;;;;;4976850;28;19906;-79
2022/11/30 04:07:29;;;;;;;;;;;7.40;87.70;;;;;;4994076;28;19948;-75
2022/11/30 04:09:54;;;;;;;;;;;7.50;87.60;;;;;;4993972;28;19914;-75
2022/11/30 04:12:20;;;;;;;;;;;7.60;86.50;;;;;;4993939;28;19912;-78
2022/11/30 04:14:45;;;;;;;;;;;7.70;85.80;;;;;;4994022;28;19996;-77
2022/11/30 04:17:11;;;;;;;;;;;7.70;85.00;;;;;;4976885;28;19969;-80
2022/11/30 04:19:36;;;;;;;;;;;7.50;84.00;;;;;;4976394;28;19912;-81
2022/11/30 04:22:02;;;;;;;;;;;7.30;83.50;;;;;;4993721;28;19909;-82
2022/11/30 04:24:27;;;;;;;;;;;7.20;84.20;;;;;;4976359;28;20023;-82
2022/11/30 04:26:53;;;;;;;;;;;7.10;84.80;;;;;;4993693;28;19906;-82
2022/11/30 04:29:18;;;;;;;;;;;7.00;85.20;;;;;;4975909;28;19910;-82
2022/11/30 04:31:43;;;;;;;;;;;6.80;85.30;;;;;;4976075;28;20293;-81
2022/11/30 04:34:09;;;;;;;;;;;6.70;85.80;;;;;;4993702;28;19913;-82
2022/11/30 04:36:34;;;;;;;;;;;6.60;86.00;;;;;;4993738;28;20366;-82
2022/11/30 04:39:00;;;;;;;;;;;6.50;86.40;;;;;;4993733;28;19912;-82
2022/11/30 04:41:25;;;;;;;;;;;6.50;86.80;;;;;;4993667;28;20000;-82
2022/11/30 04:43:51;;;;;;;;;;;6.50;87.20;;;;;;4993656;28;19909;-81
2022/11/30 04:46:16;;;;;;;;;;;6.40;87.20;;;;;;4976152;28;20281;-81
2022/11/30 04:48:42;;;;;;;;;;;6.40;87.40;;;;;;4979415;28;19910;-81
2022/11/30 04:51:07;;;;;;;;;;;6.40;87.50;;;;;;4979787;28;20433;-81
2022/11/30 04:53:34;;;;;;;;;;;6.40;87.70;;;;;;4997405;28;19906;-81
2022/11/30 04:56:03;;;;;;;;;;;6.40;87.60;;;;;;4997310;28;19960;-80
2022/11/30 04:58:28;;;;;;;;;;;6.30;87.70;;;;;;5000750;28;20360;-81
2022/11/30 05:00:54;;;;;;;;;;;6.40;87.80;;;;;;4985067;28;19956;-80
2022/11/30 05:03:19;;;;;;;;;;;6.30;87.90;;;;;;4981709;28;19905;-80
2022/11/30 05:05:45;;;;;;;;;;;6.40;88.00;;;;;;5007037;28;19928;-80
2022/11/30 05:08:10;;;;;;;;;;;6.30;88.10;;;;;;4997725;28;19906;-80
2022/11/30 05:10:36;;;;;;;;;;;6.30;88.20;;;;;;4997242;28;19914;-81
2022/11/30 05:13:03;;;;;;;;;;;6.30;88.20;;;;;;4979501;28;20384;-80
2022/11/30 05:15:28;;;;;;;;;;;6.30;88.10;;;;;;4997024;28;19906;-80
2022/11/30 05:17:56;;;;;;;;;;;6.30;88.00;;;;;;4996924;28;19961;-80
2022/11/30 05:20:22;;;;;;;;;;;6.30;87.90;;;;;;4997196;28;19909;-82
2022/11/30 05:22:47;;;;;;;;;;;6.30;88.00;;;;;;4979559;28;20018;-83
2022/11/30 05:25:13;;;;;;;;;;;6.30;88.00;;;;;;4997110;28;20267;-83
2022/11/30 05:27:38;;;;;;;;;;;6.20;88.00;;;;;;4979571;28;19913;-82
2022/11/30 05:30:04;;;;;;;;;;;6.20;88.00;;;;;;4996865;28;20357;-80
2022/11/30 05:32:30;;;;;;;;;;;6.20;88.10;;;;;;4979330;28;20001;-83
2022/11/30 05:34:55;;;;;;;;;;;6.20;88.30;;;;;;4979209;28;19912;-80
2022/11/30 05:37:20;;;;;;;;;;;6.30;88.30;;;;;;4996706;28;19976;-81
2022/11/30 05:39:46;;;;;;;;;;;6.30;88.20;;;;;;4996481;28;19906;-82
2022/11/30 05:42:11;;;;;;;;;;;6.20;88.20;;;;;;4979158;28;20407;-81
2022/11/30 05:44:37;;;;;;;;;;;6.20;88.20;;;;;;4996434;28;19913;-80
2022/11/30 05:47:02;;;;;;;;;;;6.20;88.40;;;;;;4996316;28;20514;-80
2022/11/30 05:49:28;;;;;;;;;;;6.10;88.50;;;;;;4996394;28;19906;-82
2022/11/30 05:51:53;;;;;;;;;;;6.20;88.60;;;;;;4996445;28;19996;-82
2022/11/30 05:54:19;;;;;;;;;;;6.20;88.60;;;;;;4978989;28;19905;-80
2022/11/30 05:56:44;;;;;;;;;;;6.10;88.70;;;;;;4996281;28;19945;-80
2022/11/30 05:59:10;;;;;;;;;;;6.20;88.70;;;;;;4995781;28;19910;-80
2022/11/30 06:01:36;;;;;;;;;;;6.20;88.90;;;;;;4978756;28;20361;-80
2022/11/30 06:04:03;;;;;;;;;;;6.30;88.90;;;;;;4996192;28;19975;-81
2022/11/30 06:06:29;;;;;;;;;;;6.30;88.80;;;;;;4996016;28;19905;-81
2022/11/30 06:08:54;;;;;;;;;;;6.30;88.70;;;;;;4995857;28;19960;-81
2022/11/30 06:11:19;;;;;;;;;;;6.30;88.50;;;;;;4978437;28;20004;-81
2022/11/30 06:13:45;;;;;;;;;;;6.30;88.40;;;;;;4978280;28;19960;-81
2022/11/30 06:16:10;;;;;;;;;;;6.30;88.20;;;;;;4995796;28;19956;-81
2022/11/30 06:18:36;;;;;;;;;;;6.30;88.30;;;;;;4995773;28;19968;-81
2022/11/30 06:21:03;;;;;;;;;;;6.30;88.30;;;;;;4995793;28;20310;-81
2022/11/30 06:23:43;;;;;;;;;;;6.20;88.10;;;;;;4996173;28;19905;-80
2022/11/30 06:26:10;;;;;;;;;;;6.30;88.30;;;;;;4995837;28;19963;-82
2022/11/30 06:28:35;;;;;;;;;;;6.30;88.40;;;;;;4995808;28;19906;-81
2022/11/30 06:31:01;;;;;;;;;;;6.30;88.30;;;;;;4978505;28;20350;-81
2022/11/30 06:33:27;;;;;;;;;;;6.30;88.30;;;;;;4995671;28;19952;-79
2022/11/30 06:35:52;;;;;;;;;;;6.30;88.20;;;;;;4995629;28;20392;-79
2022/11/30 06:38:50;;;;;;;;;;;6.30;88.30;;;;;;4977993;28;20413;-80
2022/11/30 06:41:15;;;;;;;;;;;6.30;88.40;;;;;;4991400;28;19906;-80
2022/11/30 06:43:40;;;;;;;;;;;6.40;88.20;;;;;;4977848;28;20358;-80
2022/11/30 06:46:06;;;;;;;;;;;6.30;88.10;;;;;;4995149;28;19913;-81
2022/11/30 06:48:33;;;;;;;;;;;6.30;88.20;;;;;;4995148;28;19913;-81
2022/11/30 06:50:59;;;;;;;;;;;6.30;88.20;;;;;;4994940;28;20514;-83
2022/11/30 06:53:25;;;;;;;;;;;6.40;88.10;;;;;;4994990;28;19906;-83
2022/11/30 06:55:51;;;;;;;;;;;6.40;88.10;;;;;;4977630;28;19913;-84
2022/11/30 06:58:16;;;;;;;;;;;6.40;88.00;;;;;;4995144;28;19996;-83
2022/11/30 07:00:42;;;;;;;;;;;6.50;88.00;;;;;;4977529;28;20270;-82
2022/11/30 07:03:09;;;;;;;;;;;6.50;87.90;;;;;;4995196;28;20008;-81
2022/11/30 07:05:40;;;;;;;;;;;6.50;87.90;;;;;;4994694;28;19913;-81
2022/11/30 07:08:05;;;;;;;;;;;6.50;87.80;;;;;;4977644;28;19967;-82
2022/11/30 07:10:31;;;;;;;;;;;6.40;87.70;;;;;;4994568;28;20362;-83
2022/11/30 07:12:56;;;;;;;;;;;6.40;87.60;;;;;;4995077;28;19905;-83
2022/11/30 07:15:21;;;;;;;;;;;6.50;87.60;;;;;;4994703;28;19910;-83
2022/11/30 07:17:47;;;;;;;;;;;6.50;87.50;;;;;;4994714;28;19913;-83
2022/11/30 07:20:13;;;;;;;;;;;6.50;87.50;;;;;;4994830;28;19952;-83
2022/11/30 07:22:38;;;;;;;;;;;6.50;87.40;;;;;;4976879;28;19905;-83
2022/11/30 07:27:50;;;;;;;;;;;6.50;87.20;;;;;;4954417;28;19960;-82
2022/11/30 07:30:15;;;;;;;;;;;6.50;87.20;;;;;;4994208;28;19914;-82
2022/11/30 07:32:41;;;;;;;;;;;6.60;87.20;;;;;;4977029;28;20362;-82
2022/11/30 07:35:06;;;;;;;;;;;6.60;87.00;;;;;;4976938;28;19910;-81
2022/11/30 07:37:32;;;;;;;;;;;6.60;86.90;;;;;;4994242;28;20384;-82
2022/11/30 07:39:57;;;;;;;;;;;6.60;86.90;;;;;;4976877;28;19910;-81
2022/11/30 07:42:23;;;;;;;;;;;6.60;86.90;;;;;;4994311;28;19906;-81
2022/11/30 07:44:48;;;;;;;;;;;6.60;87.00;;;;;;4976909;28;20341;-81
2022/11/30 07:47:14;;;;;;;;;;;6.60;87.00;;;;;;4976872;28;20337;-81
2022/11/30 07:49:40;;;;;;;;;;;6.60;87.10;;;;;;4995415;28;19960;-82
2022/11/30 07:52:06;;;;;;;;;;;6.60;87.00;;;;;;4976718;28;19913;-80
2022/11/30 07:54:31;;;;;;;;;;;6.60;87.10;;;;;;4976595;28;20004;-81
2022/11/30 07:56:56;;;;;;;;;;;6.60;86.80;;;;;;4994148;28;19906;-81
2022/11/30 07:59:22;;;;;;;;;;;6.60;86.20;;;;;;4994096;28;19910;-81
2022/11/30 08:01:47;;;;;;;;;;;6.60;85.70;;;;;;4994109;28;19906;-82
2022/11/30 08:04:13;;;;;;;;;;;6.50;84.50;;;;;;4994386;28;19912;-81
2022/11/30 08:06:39;;;;;;;;;;;6.40;83.00;;;;;;4976518;28;20385;-82
2022/11/30 08:09:06;;;;;;;;;;;6.40;83.40;;;;;;4976672;28;19905;-82
2022/11/30 08:11:32;;;;;;;;;;;6.40;82.60;;;;;;4978182;28;19920;-82
2022/11/30 08:13:58;;;;;;;;;;;6.40;81.90;;;;;;4980978;28;19906;-82
2022/11/30 08:16:25;;;;;;;;;;;6.30;80.60;;;;;;5003548;28;19913;-81
2022/11/30 08:18:51;;;;;;;;;;;6.30;81.40;;;;;;5017881;28;19898;-80
2022/11/30 08:21:18;;;;;;;;;;;6.30;80.00;;;;;;5019041;28;19940;-81
2022/11/30 08:23:44;;;;;;;;;;;6.30;80.00;;;;;;5021914;28;19898;-80
2022/11/30 08:26:12;;;;;;;;;;;6.30;80.40;;;;;;5021017;28;19910;-82
2022/11/30 08:28:38;;;;;;;;;;;6.30;80.70;;;;;;5002710;28;19917;-80
2022/11/30 08:31:05;;;;;;;;;;;6.20;79.90;;;;;;4997837;28;19913;-83
2022/11/30 08:33:31;;;;;;;;;;;6.10;78.70;;;;;;4997814;28;19913;-83
2022/11/30 08:36:10;;;;;;;;;;;6.10;78.80;;;;;;4997609;28;20306;-83
2022/11/30 08:38:36;;;;;;;;;;;6.20;79.20;;;;;;4997682;28;19917;-83
2022/11/30 08:41:02;;;;;;;;;;;6.20;79.20;;;;;;4979989;28;19905;-83
2022/11/30 08:43:27;;;;;;;;;;;6.20;78.90;;;;;;4997491;28;19906;-80
2022/11/30 08:45:53;;;;;;;;;;;6.30;79.30;;;;;;4997160;28;19906;-83
2022/11/30 08:48:18;;;;;;;;;;;6.40;79.20;;;;;;4980081;28;19906;-81
2022/11/30 08:50:44;;;;;;;;;;;6.40;78.30;;;;;;4997412;28;19921;-81
2022/11/30 08:53:09;;;;;;;;;;;6.50;78.20;;;;;;4997263;28;20377;-80
2022/11/30 08:55:35;;;;;;;;;;;6.50;78.40;;;;;;4997288;28;19912;-80
2022/11/30 08:58:00;;;;;;;;;;;6.60;78.00;;;;;;4997257;28;20346;-81
2022/11/30 09:00:26;;;;;;;;;;;6.60;77.90;;;;;;4997263;28;19905;-83
2022/11/30 09:02:51;;;;;;;;;;;6.60;77.60;;;;;;4996199;28;19917;-81
2022/11/30 09:05:16;;;;;;;;;;;6.70;77.60;;;;;;5021456;28;19937;-82
2022/11/30 09:07:42;;;;;;;;;;;6.70;76.90;;;;;;5010662;28;20448;-83
2022/11/30 09:10:08;;;;;;;;;;;6.80;77.20;;;;;;4997314;28;19910;-83
2022/11/30 09:12:36;;;;;;;;;;;6.90;76.50;;;;;;4997201;28;20317;-83
2022/11/30 09:15:01;;;;;;;;;;;6.90;75.70;;;;;;4996958;28;19910;-81
2022/11/30 09:17:27;;;;;;;;;;;6.90;75.70;;;;;;4997031;28;19992;-83
2022/11/30 09:19:53;;;;;;;;;;;7.00;75.40;;;;;;4979650;28;19956;-82
2022/11/30 09:22:19;;;;;;;;;;;6.90;75.00;;;;;;4987429;28;20346;-82
2022/11/30 09:24:44;;;;;;;;;;;6.80;74.40;;;;;;4998821;28;19924;-83
2022/11/30 09:27:10;;;;;;;;;;;6.60;74.90;;;;;;5006100;28;19906;-83
2022/11/30 09:29:35;;;;;;;;;;;6.70;75.20;;;;;;5005062;28;19906;-83
2022/11/30 09:32:01;;;;;;;;;;;6.70;75.60;;;;;;5000957;28;20269;-83
2022/11/30 09:34:26;;;;;;;;;;;6.80;75.70;;;;;;4996317;28;19905;-82
2022/11/30 09:36:52;;;;;;;;;;;6.70;75.20;;;;;;4996529;28;20309;-83
2022/11/30 09:39:17;;;;;;;;;;;6.70;74.50;;;;;;4996495;28;19905;-82
2022/11/30 09:41:58;;;;;;;;;;;6.80;75.10;;;;;;4979330;28;20377;-82
2022/11/30 09:44:23;;;;;;;;;;;6.90;75.70;;;;;;4979128;28;19913;-83
2022/11/30 09:46:55;;;;;;;;;;;7.10;75.30;;;;;;4996493;28;19905;-83
2022/11/30 09:49:26;;;;;;;;;;;7.20;75.20;;;;;;4996392;28;20025;-83
2022/11/30 09:51:54;;;;;;;;;;;7.40;75.10;;;;;;4996284;28;19914;-83
2022/11/30 09:54:36;;;;;;;;;;;7.50;75.10;;;;;;4996091;28;19906;-82
2022/11/30 09:57:23;;;;;;;;;;;7.70;75.10;;;;;;4996057;28;20189;-83
2022/11/30 09:59:52;;;;;;;;;;;7.80;74.20;;;;;;4996377;28;20000;-83
2022/11/30 10:02:17;;;;;;;;;;;8.00;73.80;;;;;;4996234;28;20250;-82
2022/11/30 10:04:43;;;;;;;;;;;8.10;73.00;;;;;;4995907;28;19906;-83
2022/11/30 10:07:17;;;;;;;;;;;8.30;72.70;;;;;;4996316;28;20362;-83
2022/11/30 10:09:51;;;;;;;;;;;8.40;71.70;;;;;;4996033;28;19997;-83
2022/11/30 10:12:20;;;;;;;;;;;8.60;71.30;;;;;;4995760;28;19914;-80
2022/11/30 10:14:53;;;;;;;;;;;8.70;70.00;;;;;;4996026;28;20008;-81
2022/11/30 10:17:26;;;;;;;;;;;8.80;69.60;;;;;;4995851;28;19988;-80
2022/11/30 10:20:14;;;;;;;;;;;9.10;69.70;;;;;;4995789;28;19905;-81
2022/11/30 10:22:50;;;;;;;;;;;9.20;69.70;;;;;;4995422;28;19959;-81
2022/11/30 10:25:23;;;;;;;;;;;9.40;69.40;;;;;;4995531;28;20031;-82
2022/11/30 10:27:50;;;;;;;;;;;9.30;69.10;;;;;;4978036;28;20393;-82
2022/11/30 10:30:18;;;;;;;;;;;9.20;69.20;;;;;;4995490;28;20032;-80
2022/11/30 10:32:44;;;;;;;;;;;9.20;69.80;;;;;;4978015;28;20343;-83
2022/11/30 10:35:30;;;;;;;;;;;9.00;70.20;;;;;;4995562;28;19937;-83
2022/11/30 10:37:56;;;;;;;;;;;8.80;70.70;;;;;;4995264;28;19913;-83
2022/11/30 10:40:29;;;;;;;;;;;8.50;71.00;;;;;;4978053;28;20029;-82
2022/11/30 10:42:57;;;;;;;;;;;8.40;72.00;;;;;;4977922;28;19952;-83
2022/11/30 10:45:24;;;;;;;;;;;8.30;72.70;;;;;;5000351;28;19915;-84
2022/11/30 10:48:09;;;;;;;;;;;8.20;73.20;;;;;;5011373;28;19917;-81
2022/11/30 10:50:35;;;;;;;;;;;8.00;74.10;;;;;;4977874;28;19914;-83
2022/11/30 10:53:01;;;;;;;;;;;7.90;74.60;;;;;;4995564;28;19923;-81
2022/11/30 10:55:33;;;;;;;;;;;7.90;75.10;;;;;;4995035;28;20323;-82
2022/11/30 10:58:14;;;;;;;;;;;7.90;75.80;;;;;;4977555;28;19906;-81
2022/11/30 11:00:42;;;;;;;;;;;7.90;75.80;;;;;;4995133;28;19941;-83
2022/11/30 11:03:23;;;;;;;;;;;7.90;76.00;;;;;;4994755;28;19906;-83
2022/11/30 11:06:01;;;;;;;;;;;7.80;75.90;;;;;;4977382;28;19947;-80
2022/11/30 11:08:27;;;;;;;;;;;7.80;75.80;;;;;;4994336;28;20278;-80
2022/11/30 11:10:53;;;;;;;;;;;7.70;76.60;;;;;;4994379;28;19925;-81
2022/11/30 11:13:33;;;;;;;;;;;7.70;76.90;;;;;;4977108;28;19953;-82
2022/11/30 11:15:59;;;;;;;;;;;7.60;77.30;;;;;;4977794;28;19906;-84
2022/11/30 11:18:27;;;;;;;;;;;7.60;78.20;;;;;;4977320;28;19905;-83
2022/11/30 11:21:01;;;;;;;;;;;7.70;78.00;;;;;;4994355;28;20361;-83
2022/11/30 11:23:33;;;;;;;;;;;7.60;77.70;;;;;;4976870;28;19912;-83
2022/11/30 11:25:59;;;;;;;;;;;7.70;77.80;;;;;;4994340;28;19996;-84
2022/11/30 11:28:25;;;;;;;;;;;7.70;77.40;;;;;;4977064;28;19983;-83
2022/11/30 11:30:51;;;;;;;;;;;7.60;77.00;;;;;;4994397;28;20358;-82
2022/11/30 11:33:19;;;;;;;;;;;7.70;76.10;;;;;;4994300;28;19909;-83
2022/11/30 11:35:46;;;;;;;;;;;7.60;76.10;;;;;;4976847;28;19964;-82
2022/11/30 11:38:17;;;;;;;;;;;7.60;76.00;;;;;;4994209;28;20382;-82
2022/11/30 11:40:53;;;;;;;;;;;7.60;75.10;;;;;;4994328;28;19953;-82
2022/11/30 11:43:19;;;;;;;;;;;7.50;74.90;;;;;;4994295;28;19906;-83
2022/11/30 11:45:49;;;;;;;;;;;7.40;75.50;;;;;;4994317;28;19941;-82
2022/11/30 11:48:34;;;;;;;;;;;7.30;76.00;;;;;;4976886;28;19906;-82
2022/11/30 11:51:01;;;;;;;;;;;7.40;76.20;;;;;;4976590;28;19920;-82
2022/11/30 11:53:38;;;;;;;;;;;7.40;76.00;;;;;;4993795;28;19982;-82
2022/11/30 11:56:08;;;;;;;;;;;7.40;75.10;;;;;;4977107;28;19912;-82
2022/11/30 11:58:44;;;;;;;;;;;7.40;74.60;;;;;;4993858;28;19914;-82
2022/11/30 12:01:20;;;;;;;;;;;7.40;74.90;;;;;;4976743;28;19906;-82
2022/11/30 12:04:06;;;;;;;;;;;7.40;75.20;;;;;;4994355;28;20430;-82
2022/11/30 12:06:32;;;;;;;;;;;7.40;74.60;;;;;;4975872;28;20270;-83
2022/11/30 12:09:13;;;;;;;;;;;7.40;74.20;;;;;;4995593;28;19906;-83
2022/11/30 12:11:46;;;;;;;;;;;7.30;74.40;;;;;;4979781;28;20401;-83
2022/11/30 12:14:13;;;;;;;;;;;7.30;74.40;;;;;;4979584;28;19906;-83
2022/11/30 12:16:38;;;;;;;;;;;7.20;75.20;;;;;;4990492;28;19898;-81
2022/11/30 12:19:12;;;;;;;;;;;7.20;75.10;;;;;;5018550;28;19918;-82
2022/11/30 12:21:40;;;;;;;;;;;7.20;74.90;;;;;;4998713;28;19937;-82
2022/11/30 12:24:11;;;;;;;;;;;7.20;75.00;;;;;;5017898;28;19917;-82
2022/11/30 12:26:41;;;;;;;;;;;7.20;75.30;;;;;;4997862;28;19909;-82
2022/11/30 12:29:18;;;;;;;;;;;7.20;75.50;;;;;;5001441;28;19945;-82
2022/11/30 12:31:58;;;;;;;;;;;7.10;74.70;;;;;;5007928;28;19918;-83
2022/11/30 12:34:27;;;;;;;;;;;7.10;73.90;;;;;;4976471;28;20016;-82
2022/11/30 12:36:58;;;;;;;;;;;7.10;73.80;;;;;;4993759;28;19956;-82
2022/11/30 12:39:24;;;;;;;;;;;7.00;73.60;;;;;;4994680;28;19910;-83
2022/11/30 12:41:57;;;;;;;;;;;7.00;73.40;;;;;;4976427;28;19909;-83
2022/11/30 12:44:27;;;;;;;;;;;7.00;73.40;;;;;;4976284;28;19914;-84
2022/11/30 12:47:19;;;;;;;;;;;7.00;73.60;;;;;;4976242;28;19949;-84
2022/11/30 12:49:53;;;;;;;;;;;6.90;73.50;;;;;;4976288;28;19905;-83
2022/11/30 12:52:22;;;;;;;;;;;6.90;74.10;;;;;;4976090;28;19968;-84
2022/11/30 12:54:52;;;;;;;;;;;6.90;74.20;;;;;;4976019;28;19928;-84
2022/11/30 12:57:22;;;;;;;;;;;6.90;73.60;;;;;;4993271;28;19980;-83
2022/11/30 12:59:56;;;;;;;;;;;6.90;73.80;;;;;;4993589;28;19905;-82
2022/11/30 13:02:33;;;;;;;;;;;6.80;73.10;;;;;;4993484;28;19959;-83
2022/11/30 13:05:01;;;;;;;;;;;6.70;73.30;;;;;;4976333;28;19913;-83
2022/11/30 13:07:30;;;;;;;;;;;6.70;73.70;;;;;;4976084;28;19913;-83
2022/11/30 13:09:59;;;;;;;;;;;6.60;73.90;;;;;;4996344;28;19960;-83
2022/11/30 13:12:34;;;;;;;;;;;6.60;73.90;;;;;;4996883;28;19977;-83
2022/11/30 13:15:02;;;;;;;;;;;6.60;73.80;;;;;;4979295;28;19941;-83
2022/11/30 13:17:30;;;;;;;;;;;6.60;73.90;;;;;;4996989;28;19905;-83
2022/11/30 13:20:13;;;;;;;;;;;6.60;74.20;;;;;;4979442;28;19912;-83
2022/11/30 13:22:47;;;;;;;;;;;6.60;74.50;;;;;;4979259;28;19912;-83
2022/11/30 13:25:19;;;;;;;;;;;6.60;74.70;;;;;;4996763;28;19922;-83
2022/11/30 13:27:49;;;;;;;;;;;6.60;75.00;;;;;;4978980;28;19984;-82
2022/11/30 13:30:18;;;;;;;;;;;6.60;75.10;;;;;;4979198;28;20017;-83
2022/11/30 13:32:43;;;;;;;;;;;6.50;75.40;;;;;;4996364;28;19917;-83
2022/11/30 13:35:27;;;;;;;;;;;6.60;76.00;;;;;;4978986;28;19906;-83
2022/11/30 13:38:03;;;;;;;;;;;6.60;76.00;;;;;;4979072;28;20370;-82
2022/11/30 13:40:28;;;;;;;;;;;6.50;75.80;;;;;;4978913;28;20314;-82
2022/11/30 13:42:54;;;;;;;;;;;6.50;76.20;;;;;;4978985;28;19905;-82
2022/11/30 13:45:38;;;;;;;;;;;6.50;76.20;;;;;;4998534;28;19906;-82
2022/11/30 13:48:18;;;;;;;;;;;6.50;75.90;;;;;;4978706;28;19905;-82
2022/11/30 13:50:46;;;;;;;;;;;6.30;75.90;;;;;;4978527;28;20358;-82
2022/11/30 13:53:19;;;;;;;;;;;6.30;75.90;;;;;;4978441;28;20413;-82
2022/11/30 13:55:48;;;;;;;;;;;6.30;76.00;;;;;;4996013;28;19912;-83
2022/11/30 13:58:14;;;;;;;;;;;6.30;76.20;;;;;;4978173;28;19910;-82
2022/11/30 14:00:39;;;;;;;;;;;6.30;76.10;;;;;;4978634;28;19906;-84
2022/11/30 14:03:14;;;;;;;;;;;6.20;76.20;;;;;;4978660;28;19910;-84
2022/11/30 14:05:43;;;;;;;;;;;6.20;76.10;;;;;;4979018;28;19932;-81
2022/11/30 14:08:09;;;;;;;;;;;6.10;76.30;;;;;;4978277;28;19906;-84
2022/11/30 14:10:36;;;;;;;;;;;6.20;76.30;;;;;;4978245;28;20404;-83
2022/11/30 14:13:02;;;;;;;;;;;6.10;76.50;;;;;;4978202;28;19995;-81
2022/11/30 14:15:37;;;;;;;;;;;6.20;76.70;;;;;;4995755;28;19910;-83
2022/11/30 14:18:08;;;;;;;;;;;6.20;76.60;;;;;;4995763;28;19909;-83
2022/11/30 14:20:36;;;;;;;;;;;6.20;76.10;;;;;;4995506;28;19914;-83
2022/11/30 14:23:03;;;;;;;;;;;6.10;75.80;;;;;;4978261;28;19996;-83
2022/11/30 14:25:30;;;;;;;;;;;6.10;76.10;;;;;;4996264;28;19927;-84
2022/11/30 14:27:55;;;;;;;;;;;6.10;76.10;;;;;;4978405;28;19906;-81
2022/11/30 14:30:22;;;;;;;;;;;6.10;75.70;;;;;;4978131;28;19941;-83
2022/11/30 14:32:54;;;;;;;;;;;6.10;75.80;;;;;;4995554;28;19910;-83
2022/11/30 14:35:20;;;;;;;;;;;6.10;75.80;;;;;;4978089;28;19972;-83
2022/11/30 14:37:53;;;;;;;;;;;6.10;75.80;;;;;;4978267;28;19906;-83
2022/11/30 14:40:20;;;;;;;;;;;6.10;75.90;;;;;;4978826;28;20258;-83